sensor_id;sensor_type;location;lat;lon;timestamp;temperature;humidity
66373;SHT30;53168;51.146;17.120;2024-03-02T00:01:32;10.45;82.77
66373;SHT30;53168;51.146;17.120;2024-03-02T00:04:24;10.41;82.81
66373;SHT30;53168;51.146;17.120;2024-03-02T00:07:26;10.38;82.95
66373;SHT30;53168;51.146;17.120;2024-03-02T00:10:14;10.37;83.04
66373;SHT30;53168;51.146;17.120;2024-03-02T00:13:05;10.38;83.10
66373;SHT30;53168;51.146;17.120;2024-03-02T00:15:56;10.38;83.03
66373;SHT30;53168;51.146;17.120;2024-03-02T00:18:39;10.40;83.01
66373;SHT30;53168;51.146;17.120;2024-03-02T00:21:29;10.42;82.96
66373;SHT30;53168;51.146;17.120;2024-03-02T00:24:21;10.43;82.98
66373;SHT30;53168;51.146;17.120;2024-03-02T00:27:09;10.45;82.90
66373;SHT30;53168;51.146;17.120;2024-03-02T00:29:54;10.45;82.90
66373;SHT30;53168;51.146;17.120;2024-03-02T00:32:31;10.45;82.97
66373;SHT30;53168;51.146;17.120;2024-03-02T00:35:09;10.46;82.99
66373;SHT30;53168;51.146;17.120;2024-03-02T00:38:10;10.45;82.98
66373;SHT30;53168;51.146;17.120;2024-03-02T00:40:56;10.45;83.00
66373;SHT30;53168;51.146;17.120;2024-03-02T00:43:50;10.44;82.99
66373;SHT30;53168;51.146;17.120;2024-03-02T00:46:36;10.41;82.91
66373;SHT30;53168;51.146;17.120;2024-03-02T00:49:24;10.36;82.90
66373;SHT30;53168;51.146;17.120;2024-03-02T00:52:04;10.31;82.90
66373;SHT30;53168;51.146;17.120;2024-03-02T00:54:41;10.25;82.95
66373;SHT30;53168;51.146;17.120;2024-03-02T00:57:20;10.20;83.00
66373;SHT30;53168;51.146;17.120;2024-03-02T01:00:01;10.18;83.13
66373;SHT30;53168;51.146;17.120;2024-03-02T01:02:46;10.19;83.24
66373;SHT30;53168;51.146;17.120;2024-03-02T01:05:26;10.18;83.34
66373;SHT30;53168;51.146;17.120;2024-03-02T01:08:12;10.19;83.38
66373;SHT30;53168;51.146;17.120;2024-03-02T01:10:49;10.18;83.44
66373;SHT30;53168;51.146;17.120;2024-03-02T01:13:25;10.19;83.50
66373;SHT30;53168;51.146;17.120;2024-03-02T01:16:04;10.17;83.56
66373;SHT30;53168;51.146;17.120;2024-03-02T01:18:39;10.17;83.58
66373;SHT30;53168;51.146;17.120;2024-03-02T01:21:17;10.17;83.60
66373;SHT30;53168;51.146;17.120;2024-03-02T01:23:58;10.17;83.49
66373;SHT30;53168;51.146;17.120;2024-03-02T01:26:35;10.17;83.41
66373;SHT30;53168;51.146;17.120;2024-03-02T01:29:11;10.13;83.35
66373;SHT30;53168;51.146;17.120;2024-03-02T01:31:49;10.10;83.31
66373;SHT30;53168;51.146;17.120;2024-03-02T01:34:27;10.07;83.30
66373;SHT30;53168;51.146;17.120;2024-03-02T01:37:06;10.03;83.31
66373;SHT30;53168;51.146;17.120;2024-03-02T01:39:47;10.03;83.42
66373;SHT30;53168;51.146;17.120;2024-03-02T01:42:23;10.03;83.49
66373;SHT30;53168;51.146;17.120;2024-03-02T01:44:59;10.03;83.55
66373;SHT30;53168;51.146;17.120;2024-03-02T01:47:37;10.04;83.60
66373;SHT30;53168;51.146;17.120;2024-03-02T01:50:13;10.05;83.61
66373;SHT30;53168;51.146;17.120;2024-03-02T01:52:49;10.05;83.65
66373;SHT30;53168;51.146;17.120;2024-03-02T01:55:26;10.06;83.63
66373;SHT30;53168;51.146;17.120;2024-03-02T01:58:03;10.06;83.62
66373;SHT30;53168;51.146;17.120;2024-03-02T02:00:41;10.06;83.60
66373;SHT30;53168;51.146;17.120;2024-03-02T02:03:27;10.06;83.60
66373;SHT30;53168;51.146;17.120;2024-03-02T02:06:04;10.05;83.60
66373;SHT30;53168;51.146;17.120;2024-03-02T02:08:40;10.02;83.60
66373;SHT30;53168;51.146;17.120;2024-03-02T02:11:18;10.00;83.65
66373;SHT30;53168;51.146;17.120;2024-03-02T02:13:55;9.98;83.70
66373;SHT30;53168;51.146;17.120;2024-03-02T02:16:31;9.97;83.75
66373;SHT30;53168;51.146;17.120;2024-03-02T02:19:07;9.96;83.73
66373;SHT30;53168;51.146;17.120;2024-03-02T02:23:06;9.93;83.70
66373;SHT30;53168;51.146;17.120;2024-03-02T02:25:43;9.91;83.69
66373;SHT30;53168;51.146;17.120;2024-03-02T02:28:18;9.89;83.64
66373;SHT30;53168;51.146;17.120;2024-03-02T02:30:58;9.86;83.60
66373;SHT30;53168;51.146;17.120;2024-03-02T02:33:36;9.80;83.60
66373;SHT30;53168;51.146;17.120;2024-03-02T02:36:14;9.75;83.62
66373;SHT30;53168;51.146;17.120;2024-03-02T02:38:50;9.67;83.69
66373;SHT30;53168;51.146;17.120;2024-03-02T02:41:28;9.59;83.70
66373;SHT30;53168;51.146;17.120;2024-03-02T02:44:03;9.51;83.79
66373;SHT30;53168;51.146;17.120;2024-03-02T02:46:43;9.45;83.82
66373;SHT30;53168;51.146;17.120;2024-03-02T02:49:22;9.39;83.84
66373;SHT30;53168;51.146;17.120;2024-03-02T02:52:04;9.33;83.97
66373;SHT30;53168;51.146;17.120;2024-03-02T02:54:41;9.27;84.00
66373;SHT30;53168;51.146;17.120;2024-03-02T02:57:20;9.24;84.10
66373;SHT30;53168;51.146;17.120;2024-03-02T03:00:17;9.20;84.17
66373;SHT30;53168;51.146;17.120;2024-03-02T03:02:56;9.15;84.19
66373;SHT30;53168;51.146;17.120;2024-03-02T03:05:33;9.11;84.20
66373;SHT30;53168;51.146;17.120;2024-03-02T03:08:09;9.07;84.22
66373;SHT30;53168;51.146;17.120;2024-03-02T03:10:48;9.02;84.30
66373;SHT30;53168;51.146;17.120;2024-03-02T03:13:25;8.99;84.32
66373;SHT30;53168;51.146;17.120;2024-03-02T03:16:01;8.97;84.40
66373;SHT30;53168;51.146;17.120;2024-03-02T03:18:40;8.98;84.42
66373;SHT30;53168;51.146;17.120;2024-03-02T03:21:17;9.03;84.50
66373;SHT30;53168;51.146;17.120;2024-03-02T03:24:58;9.11;84.56
66373;SHT30;53168;51.146;17.120;2024-03-02T03:27:36;9.17;84.54
66373;SHT30;53168;51.146;17.120;2024-03-02T03:30:29;9.24;84.51
66373;SHT30;53168;51.146;17.120;2024-03-02T03:33:07;9.30;84.49
66373;SHT30;53168;51.146;17.120;2024-03-02T03:35:43;9.35;84.40
66373;SHT30;53168;51.146;17.120;2024-03-02T03:38:18;9.39;84.32
66373;SHT30;53168;51.146;17.120;2024-03-02T03:40:55;9.43;84.30
66373;SHT30;53168;51.146;17.120;2024-03-02T03:43:32;9.47;84.30
66373;SHT30;53168;51.146;17.120;2024-03-02T03:46:08;9.49;84.28
66373;SHT30;53168;51.146;17.120;2024-03-02T03:48:44;9.51;84.20
66373;SHT30;53168;51.146;17.120;2024-03-02T03:51:20;9.54;84.20
66373;SHT30;53168;51.146;17.120;2024-03-02T03:53:59;9.55;84.11
66373;SHT30;53168;51.146;17.120;2024-03-02T03:56:34;9.58;84.09
66373;SHT30;53168;51.146;17.120;2024-03-02T03:59:10;9.59;84.00
66373;SHT30;53168;51.146;17.120;2024-03-02T04:01:45;9.61;83.97
66373;SHT30;53168;51.146;17.120;2024-03-02T04:04:21;9.62;83.90
66373;SHT30;53168;51.146;17.120;2024-03-02T04:07:06;9.64;83.90
66373;SHT30;53168;51.146;17.120;2024-03-02T04:09:41;9.67;83.89
66373;SHT30;53168;51.146;17.120;2024-03-02T04:27:17;9.70;83.81
66373;SHT30;53168;51.146;17.120;2024-03-02T04:29:54;9.70;83.80
66373;SHT30;53168;51.146;17.120;2024-03-02T04:32:34;9.69;83.80
66373;SHT30;53168;51.146;17.120;2024-03-02T04:35:10;9.68;83.85
66373;SHT30;53168;51.146;17.120;2024-03-02T04:37:45;9.66;83.84
66373;SHT30;53168;51.146;17.120;2024-03-02T04:40:20;9.62;83.83
66373;SHT30;53168;51.146;17.120;2024-03-02T04:42:57;9.59;83.88
66373;SHT30;53168;51.146;17.120;2024-03-02T04:45:35;9.58;83.90
66373;SHT30;53168;51.146;17.120;2024-03-02T04:48:12;9.56;83.90
66373;SHT30;53168;51.146;17.120;2024-03-02T04:50:48;9.55;83.91
66373;SHT30;53168;51.146;17.120;2024-03-02T04:53:23;9.54;83.90
66373;SHT30;53168;51.146;17.120;2024-03-02T04:55:58;9.53;83.90
66373;SHT30;53168;51.146;17.120;2024-03-02T04:58:59;9.51;83.90
66373;SHT30;53168;51.146;17.120;2024-03-02T05:01:35;9.51;83.92
66373;SHT30;53168;51.146;17.120;2024-03-02T05:04:10;9.47;84.00
66373;SHT30;53168;51.146;17.120;2024-03-02T05:06:46;9.45;84.00
66373;SHT30;53168;51.146;17.120;2024-03-02T05:09:25;9.43;83.97
66373;SHT30;53168;51.146;17.120;2024-03-02T05:12:04;9.40;83.91
66373;SHT30;53168;51.146;17.120;2024-03-02T05:15:06;9.35;83.91
66373;SHT30;53168;51.146;17.120;2024-03-02T05:17:43;9.30;83.90
66373;SHT30;53168;51.146;17.120;2024-03-02T05:20:20;9.23;83.90
66373;SHT30;53168;51.146;17.120;2024-03-02T05:22:59;9.18;83.94
66373;SHT30;53168;51.146;17.120;2024-03-02T05:25:40;9.13;83.99
66373;SHT30;53168;51.146;17.120;2024-03-02T05:28:17;9.09;84.04
66373;SHT30;53168;51.146;17.120;2024-03-02T05:30:53;9.05;84.09
66373;SHT30;53168;51.146;17.120;2024-03-02T05:33:30;8.99;84.08
66373;SHT30;53168;51.146;17.120;2024-03-02T05:36:10;8.95;84.10
66373;SHT30;53168;51.146;17.120;2024-03-02T05:38:46;8.90;84.11
66373;SHT30;53168;51.146;17.120;2024-03-02T05:41:21;8.87;84.18
66373;SHT30;53168;51.146;17.120;2024-03-02T05:43:58;8.84;84.20
66373;SHT30;53168;51.146;17.120;2024-03-02T05:46:36;8.82;84.22
66373;SHT30;53168;51.146;17.120;2024-03-02T05:49:12;8.81;84.27
66373;SHT30;53168;51.146;17.120;2024-03-02T05:51:50;8.78;84.30
66373;SHT30;53168;51.146;17.120;2024-03-02T05:54:29;8.78;84.35
66373;SHT30;53168;51.146;17.120;2024-03-02T05:57:12;8.79;84.40
66373;SHT30;53168;51.146;17.120;2024-03-02T06:00:10;8.81;84.36
66373;SHT30;53168;51.146;17.120;2024-03-02T06:02:50;8.82;84.33
66373;SHT30;53168;51.146;17.120;2024-03-02T06:05:28;8.82;84.30
66373;SHT30;53168;51.146;17.120;2024-03-02T06:08:08;8.81;84.28
66373;SHT30;53168;51.146;17.120;2024-03-02T06:10:45;8.82;84.22
66373;SHT30;53168;51.146;17.120;2024-03-02T06:13:24;8.82;84.20
66373;SHT30;53168;51.146;17.120;2024-03-02T06:16:00;8.82;84.25
66373;SHT30;53168;51.146;17.120;2024-03-02T06:18:37;8.84;84.22
66373;SHT30;53168;51.146;17.120;2024-03-02T06:21:13;8.83;84.20
66373;SHT30;53168;51.146;17.120;2024-03-02T06:23:48;8.84;84.20
66373;SHT30;53168;51.146;17.120;2024-03-02T06:26:25;8.85;84.20
66373;SHT30;53168;51.146;17.120;2024-03-02T06:29:01;8.86;84.18
66373;SHT30;53168;51.146;17.120;2024-03-02T06:31:40;8.86;84.13
66373;SHT30;53168;51.146;17.120;2024-03-02T06:34:16;8.89;84.15
66373;SHT30;53168;51.146;17.120;2024-03-02T06:36:52;8.92;84.20
66373;SHT30;53168;51.146;17.120;2024-03-02T06:39:28;8.94;84.21
66373;SHT30;53168;51.146;17.120;2024-03-02T06:42:07;8.99;84.20
66373;SHT30;53168;51.146;17.120;2024-03-02T06:44:42;9.04;84.20
66373;SHT30;53168;51.146;17.120;2024-03-02T06:47:31;9.09;84.12
66373;SHT30;53168;51.146;17.120;2024-03-02T06:50:09;9.14;84.10
66373;SHT30;53168;51.146;17.120;2024-03-02T06:52:44;9.20;84.01
66373;SHT30;53168;51.146;17.120;2024-03-02T06:55:19;9.24;83.96
66373;SHT30;53168;51.146;17.120;2024-03-02T06:57:55;9.30;83.90
66373;SHT30;53168;51.146;17.120;2024-03-02T07:00:30;9.38;83.87
66373;SHT30;53168;51.146;17.120;2024-03-02T07:03:05;9.44;83.77
66373;SHT30;53168;51.146;17.120;2024-03-02T07:05:41;9.54;83.72
66373;SHT30;53168;51.146;17.120;2024-03-02T07:08:18;9.64;83.69
66373;SHT30;53168;51.146;17.120;2024-03-02T07:11:05;9.75;83.59
66373;SHT30;53168;51.146;17.120;2024-03-02T07:13:40;9.85;83.48
66373;SHT30;53168;51.146;17.120;2024-03-02T07:16:17;9.94;83.35
66373;SHT30;53168;51.146;17.120;2024-03-02T07:19:02;10.01;83.22
66373;SHT30;53168;51.146;17.120;2024-03-02T07:21:38;10.07;83.20
66373;SHT30;53168;51.146;17.120;2024-03-02T07:24:13;10.17;83.18
66373;SHT30;53168;51.146;17.120;2024-03-02T07:26:48;10.29;83.13
66373;SHT30;53168;51.146;17.120;2024-03-02T07:29:25;10.40;83.00
66373;SHT30;53168;51.146;17.120;2024-03-02T07:32:00;10.54;82.87
66373;SHT30;53168;51.146;17.120;2024-03-02T07:34:36;10.71;82.80
66373;SHT30;53168;51.146;17.120;2024-03-02T07:37:13;10.91;82.70
66373;SHT30;53168;51.146;17.120;2024-03-02T07:39:48;11.11;82.53
66373;SHT30;53168;51.146;17.120;2024-03-02T07:42:26;11.27;82.36
66373;SHT30;53168;51.146;17.120;2024-03-02T07:45:02;11.35;82.12
66373;SHT30;53168;51.146;17.120;2024-03-02T07:47:41;11.34;81.75
66373;SHT30;53168;51.146;17.120;2024-03-02T07:50:16;11.35;81.69
66373;SHT30;53168;51.146;17.120;2024-03-02T07:52:50;11.38;81.68
66373;SHT30;53168;51.146;17.120;2024-03-02T07:55:25;11.40;81.60
66373;SHT30;53168;51.146;17.120;2024-03-02T07:58:01;11.46;81.67
66373;SHT30;53168;51.146;17.120;2024-03-02T08:00:37;11.57;81.59
66373;SHT30;53168;51.146;17.120;2024-03-02T08:03:14;11.63;81.32
66373;SHT30;53168;51.146;17.120;2024-03-02T08:05:49;11.67;81.28
66373;SHT30;53168;51.146;17.120;2024-03-02T08:08:24;11.71;81.06
66373;SHT30;53168;51.146;17.120;2024-03-02T08:11:00;11.75;80.98
66373;SHT30;53168;51.146;17.120;2024-03-02T08:13:34;11.81;80.81
66373;SHT30;53168;51.146;17.120;2024-03-02T08:16:13;11.90;80.75
66373;SHT30;53168;51.146;17.120;2024-03-02T08:18:55;11.98;80.65
66373;SHT30;53168;51.146;17.120;2024-03-02T08:21:30;12.13;80.61
66373;SHT30;53168;51.146;17.120;2024-03-02T08:24:08;12.30;80.46
66373;SHT30;53168;51.146;17.120;2024-03-02T08:26:44;12.41;80.02
66373;SHT30;53168;51.146;17.120;2024-03-02T08:29:19;12.46;79.65
66373;SHT30;53168;51.146;17.120;2024-03-02T08:31:55;12.51;79.55
66373;SHT30;53168;51.146;17.120;2024-03-02T08:34:32;12.59;79.48
66373;SHT30;53168;51.146;17.120;2024-03-02T08:37:10;12.68;79.47
66373;SHT30;53168;51.146;17.120;2024-03-02T08:39:49;12.80;79.28
66373;SHT30;53168;51.146;17.120;2024-03-02T08:42:25;12.92;79.15
66373;SHT30;53168;51.146;17.120;2024-03-02T08:45:01;13.03;78.80
66373;SHT30;53168;51.146;17.120;2024-03-02T08:47:37;13.17;78.83
66373;SHT30;53168;51.146;17.120;2024-03-02T08:50:14;13.34;78.58
66373;SHT30;53168;51.146;17.120;2024-03-02T08:52:52;13.52;78.51
66373;SHT30;53168;51.146;17.120;2024-03-02T08:55:28;13.74;78.41
66373;SHT30;53168;51.146;17.120;2024-03-02T08:58:04;13.90;78.00
66373;SHT30;53168;51.146;17.120;2024-03-02T09:00:45;13.99;77.67
66373;SHT30;53168;51.146;17.120;2024-03-02T09:03:21;14.06;77.59
66373;SHT30;53168;51.146;17.120;2024-03-02T09:06:12;14.12;77.29
66373;SHT30;53168;51.146;17.120;2024-03-02T09:13:01;14.18;77.11
66373;SHT30;53168;51.146;17.120;2024-03-02T09:15:37;14.20;76.89
66373;SHT30;53168;51.146;17.120;2024-03-02T09:18:12;14.18;76.66
66373;SHT30;53168;51.146;17.120;2024-03-02T09:20:47;14.19;76.76
66373;SHT30;53168;51.146;17.120;2024-03-02T09:23:22;14.22;76.43
66373;SHT30;53168;51.146;17.120;2024-03-02T09:25:58;14.22;76.19
66373;SHT30;53168;51.146;17.120;2024-03-02T09:28:35;14.26;76.00
66373;SHT30;53168;51.146;17.120;2024-03-02T09:31:12;14.34;75.93
66373;SHT30;53168;51.146;17.120;2024-03-02T09:33:52;14.41;75.51
66373;SHT30;53168;51.146;17.120;2024-03-02T09:36:27;14.46;75.19
66373;SHT30;53168;51.146;17.120;2024-03-02T09:39:05;14.48;74.96
66373;SHT30;53168;51.146;17.120;2024-03-02T09:41:47;14.52;74.95
66373;SHT30;53168;51.146;17.120;2024-03-02T09:44:31;14.61;74.93
66373;SHT30;53168;51.146;17.120;2024-03-02T09:47:08;14.71;74.89
66373;SHT30;53168;51.146;17.120;2024-03-02T09:49:46;14.79;74.75
66373;SHT30;53168;51.146;17.120;2024-03-02T09:52:23;14.89;74.68
66373;SHT30;53168;51.146;17.120;2024-03-02T09:54:59;14.98;74.30
66373;SHT30;53168;51.146;17.120;2024-03-02T09:57:34;15.02;73.96
66373;SHT30;53168;51.146;17.120;2024-03-02T10:00:14;15.06;73.83
66373;SHT30;53168;51.146;17.120;2024-03-02T10:02:50;15.06;73.66
66373;SHT30;53168;51.146;17.120;2024-03-02T10:05:28;15.07;73.49
66373;SHT30;53168;51.146;17.120;2024-03-02T10:08:04;15.11;73.60
66373;SHT30;53168;51.146;17.120;2024-03-02T10:10:40;15.17;73.38
66373;SHT30;53168;51.146;17.120;2024-03-02T10:13:16;15.18;73.01
66373;SHT30;53168;51.146;17.120;2024-03-02T10:15:51;15.24;73.20
66373;SHT30;53168;51.146;17.120;2024-03-02T10:18:29;15.29;72.72
66373;SHT30;53168;51.146;17.120;2024-03-02T10:21:20;15.33;72.50
66373;SHT30;53168;51.146;17.120;2024-03-02T10:24:35;15.36;72.37
66373;SHT30;53168;51.146;17.120;2024-03-02T10:27:25;15.42;72.44
66373;SHT30;53168;51.146;17.120;2024-03-02T10:30:14;15.50;72.26
66373;SHT30;53168;51.146;17.120;2024-03-02T10:32:50;15.57;72.01
66373;SHT30;53168;51.146;17.120;2024-03-02T10:35:26;15.60;71.77
66373;SHT30;53168;51.146;17.120;2024-03-02T10:38:05;15.61;71.44
66373;SHT30;53168;51.146;17.120;2024-03-02T10:40:48;15.64;71.59
66373;SHT30;53168;51.146;17.120;2024-03-02T10:43:25;15.65;71.36
66373;SHT30;53168;51.146;17.120;2024-03-02T10:57:40;15.83;71.07
66373;SHT30;53168;51.146;17.120;2024-03-02T11:00:27;15.87;69.97
66373;SHT30;53168;51.146;17.120;2024-03-02T11:03:08;15.88;69.96
66373;SHT30;53168;51.146;17.120;2024-03-02T11:05:46;15.87;69.60
66373;SHT30;53168;51.146;17.120;2024-03-02T11:08:29;15.86;69.54
66373;SHT30;53168;51.146;17.120;2024-03-02T11:11:11;15.84;69.36
66373;SHT30;53168;51.146;17.120;2024-03-02T11:13:51;15.85;69.12
66373;SHT30;53168;51.146;17.120;2024-03-02T11:16:35;15.82;69.15
66373;SHT30;53168;51.146;17.120;2024-03-02T11:19:15;15.84;69.32
66373;SHT30;53168;51.146;17.120;2024-03-02T11:21:52;15.82;69.27
66373;SHT30;53168;51.146;17.120;2024-03-02T11:24:33;15.78;69.29
66373;SHT30;53168;51.146;17.120;2024-03-02T11:27:12;15.77;69.25
66373;SHT30;53168;51.146;17.120;2024-03-02T11:29:55;15.81;69.29
66373;SHT30;53168;51.146;17.120;2024-03-02T11:32:31;15.89;69.05
66373;SHT30;53168;51.146;17.120;2024-03-02T11:35:06;15.94;69.03
66373;SHT30;53168;51.146;17.120;2024-03-02T11:37:41;16.01;69.17
66373;SHT30;53168;51.146;17.120;2024-03-02T11:40:27;16.08;69.27
66373;SHT30;53168;51.146;17.120;2024-03-02T11:43:06;16.13;68.81
66373;SHT30;53168;51.146;17.120;2024-03-02T11:45:50;16.10;68.29
66373;SHT30;53168;51.146;17.120;2024-03-02T11:48:42;16.08;68.32
66373;SHT30;53168;51.146;17.120;2024-03-02T11:51:26;16.07;68.37
66373;SHT30;53168;51.146;17.120;2024-03-02T11:54:02;16.09;68.66
66373;SHT30;53168;51.146;17.120;2024-03-02T11:56:38;16.13;68.31
66373;SHT30;53168;51.146;17.120;2024-03-02T11:59:21;16.13;68.14
66373;SHT30;53168;51.146;17.120;2024-03-02T12:01:59;16.06;67.55
66373;SHT30;53168;51.146;17.120;2024-03-02T12:04:35;16.00;67.79
66373;SHT30;53168;51.146;17.120;2024-03-02T12:07:20;16.00;68.06
66373;SHT30;53168;51.146;17.120;2024-03-02T12:10:03;16.02;68.03
66373;SHT30;53168;51.146;17.120;2024-03-02T12:25:50;15.98;67.22
66373;SHT30;53168;51.146;17.120;2024-03-02T12:28:28;15.98;67.40
66373;SHT30;53168;51.146;17.120;2024-03-02T12:31:06;16.07;67.46
66373;SHT30;53168;51.146;17.120;2024-03-02T12:33:41;16.14;67.08
66373;SHT30;53168;51.146;17.120;2024-03-02T12:36:18;16.17;66.85
66373;SHT30;53168;51.146;17.120;2024-03-02T12:38:56;16.18;66.84
66373;SHT30;53168;51.146;17.120;2024-03-02T12:41:31;16.23;66.86
66373;SHT30;53168;51.146;17.120;2024-03-02T13:05:50;16.59;65.38
66373;SHT30;53168;51.146;17.120;2024-03-02T13:08:23;16.61;65.68
66373;SHT30;53168;51.146;17.120;2024-03-02T13:10:54;16.68;65.64
66373;SHT30;53168;51.146;17.120;2024-03-02T13:13:25;16.75;65.67
66373;SHT30;53168;51.146;17.120;2024-03-02T13:16:01;16.83;65.69
66373;SHT30;53168;51.146;17.120;2024-03-02T13:18:36;16.93;65.84
66373;SHT30;53168;51.146;17.120;2024-03-02T13:21:09;17.00;65.43
66373;SHT30;53168;51.146;17.120;2024-03-02T13:23:39;17.03;65.42
66373;SHT30;53168;51.146;17.120;2024-03-02T13:26:10;17.02;65.23
66373;SHT30;53168;51.146;17.120;2024-03-02T13:28:41;16.96;64.99
66373;SHT30;53168;51.146;17.120;2024-03-02T13:31:14;16.82;64.68
66373;SHT30;53168;51.146;17.120;2024-03-02T13:33:45;16.69;64.90
66373;SHT30;53168;51.146;17.120;2024-03-02T13:36:16;16.57;64.90
66373;SHT30;53168;51.146;17.120;2024-03-02T13:38:50;16.43;64.93
66373;SHT30;53168;51.146;17.120;2024-03-02T13:41:22;16.30;65.01
66373;SHT30;53168;51.146;17.120;2024-03-02T13:43:53;16.23;65.28
66373;SHT30;53168;51.146;17.120;2024-03-02T13:46:24;16.22;65.36
66373;SHT30;53168;51.146;17.120;2024-03-02T13:48:55;16.22;65.22
66373;SHT30;53168;51.146;17.120;2024-03-02T13:51:27;16.16;64.94
66373;SHT30;53168;51.146;17.120;2024-03-02T13:53:58;16.13;65.09
66373;SHT30;53168;51.146;17.120;2024-03-02T13:56:30;16.08;64.96
66373;SHT30;53168;51.146;17.120;2024-03-02T13:59:02;16.02;65.00
66373;SHT30;53168;51.146;17.120;2024-03-02T14:01:34;15.94;65.05
66373;SHT30;53168;51.146;17.120;2024-03-02T14:04:05;15.85;65.19
66373;SHT30;53168;51.146;17.120;2024-03-02T14:06:37;15.79;65.32
66373;SHT30;53168;51.146;17.120;2024-03-02T14:09:08;15.72;65.46
66373;SHT30;53168;51.146;17.120;2024-03-02T14:11:40;15.67;65.47
66373;SHT30;53168;51.146;17.120;2024-03-02T14:14:11;15.58;65.40
66373;SHT30;53168;51.146;17.120;2024-03-02T14:16:42;15.52;65.42
66373;SHT30;53168;51.146;17.120;2024-03-02T14:19:14;15.48;65.61
66373;SHT30;53168;51.146;17.120;2024-03-02T14:21:45;15.40;65.49
66373;SHT30;53168;51.146;17.120;2024-03-02T14:24:16;15.33;65.53
66373;SHT30;53168;51.146;17.120;2024-03-02T14:26:47;15.25;65.62
66373;SHT30;53168;51.146;17.120;2024-03-02T14:29:22;15.16;65.80
66373;SHT30;53168;51.146;17.120;2024-03-02T14:31:53;15.10;66.00
66373;SHT30;53168;51.146;17.120;2024-03-02T14:34:24;15.04;66.10
66373;SHT30;53168;51.146;17.120;2024-03-02T14:36:55;14.97;66.21
66373;SHT30;53168;51.146;17.120;2024-03-02T14:39:26;14.90;66.38
66373;SHT30;53168;51.146;17.120;2024-03-02T14:41:57;14.84;66.47
66373;SHT30;53168;51.146;17.120;2024-03-02T14:44:27;14.76;66.64
66373;SHT30;53168;51.146;17.120;2024-03-02T14:46:59;14.70;66.79
66373;SHT30;53168;51.146;17.120;2024-03-02T14:49:31;14.66;66.89
66373;SHT30;53168;51.146;17.120;2024-03-02T14:52:03;14.61;67.04
66373;SHT30;53168;51.146;17.120;2024-03-02T14:54:34;14.57;67.19
66373;SHT30;53168;51.146;17.120;2024-03-02T14:57:05;14.49;67.33
66373;SHT30;53168;51.146;17.120;2024-03-02T14:59:37;14.46;67.42
66373;SHT30;53168;51.146;17.120;2024-03-02T15:02:08;14.42;67.48
66373;SHT30;53168;51.146;17.120;2024-03-02T15:04:39;14.39;67.53
66373;SHT30;53168;51.146;17.120;2024-03-02T15:07:10;14.36;67.67
66373;SHT30;53168;51.146;17.120;2024-03-02T15:09:40;14.33;67.76
66373;SHT30;53168;51.146;17.120;2024-03-02T15:12:11;14.29;67.88
66373;SHT30;53168;51.146;17.120;2024-03-02T15:14:43;14.23;67.99
66373;SHT30;53168;51.146;17.120;2024-03-02T15:17:16;14.16;68.09
66373;SHT30;53168;51.146;17.120;2024-03-02T15:19:47;14.11;68.19
66373;SHT30;53168;51.146;17.120;2024-03-02T15:22:19;14.06;68.29
66373;SHT30;53168;51.146;17.120;2024-03-02T15:24:50;14.02;68.38
66373;SHT30;53168;51.146;17.120;2024-03-02T15:27:21;13.98;68.45
66373;SHT30;53168;51.146;17.120;2024-03-02T15:29:52;13.93;68.59
66373;SHT30;53168;51.146;17.120;2024-03-02T15:32:24;13.88;68.68
66373;SHT30;53168;51.146;17.120;2024-03-02T15:34:55;13.85;68.73
66373;SHT30;53168;51.146;17.120;2024-03-02T15:37:26;13.83;68.78
66373;SHT30;53168;51.146;17.120;2024-03-02T15:39:57;13.80;68.85
66373;SHT30;53168;51.146;17.120;2024-03-02T15:42:35;13.76;68.95
66373;SHT30;53168;51.146;17.120;2024-03-02T15:45:07;13.73;69.05
66373;SHT30;53168;51.146;17.120;2024-03-02T15:47:39;13.69;69.11
66373;SHT30;53168;51.146;17.120;2024-03-02T15:50:11;13.65;69.18
66373;SHT30;53168;51.146;17.120;2024-03-02T15:52:43;13.63;69.22
66373;SHT30;53168;51.146;17.120;2024-03-02T15:55:16;13.62;69.28
66373;SHT30;53168;51.146;17.120;2024-03-02T15:57:48;13.60;69.33
66373;SHT30;53168;51.146;17.120;2024-03-02T16:00:20;13.57;69.44
66373;SHT30;53168;51.146;17.120;2024-03-02T16:02:51;13.55;69.43
66373;SHT30;53168;51.146;17.120;2024-03-02T16:05:25;13.51;69.53
66373;SHT30;53168;51.146;17.120;2024-03-02T16:07:55;13.48;69.60
66373;SHT30;53168;51.146;17.120;2024-03-02T16:10:26;13.46;69.67
66373;SHT30;53168;51.146;17.120;2024-03-02T16:12:57;13.43;69.70
66373;SHT30;53168;51.146;17.120;2024-03-02T16:15:29;13.41;69.75
66373;SHT30;53168;51.146;17.120;2024-03-02T16:18:00;13.37;69.81
66373;SHT30;53168;51.146;17.120;2024-03-02T16:20:32;13.34;69.90
66373;SHT30;53168;51.146;17.120;2024-03-02T16:23:10;13.30;69.95
66373;SHT30;53168;51.146;17.120;2024-03-02T16:25:41;13.26;70.08
66373;SHT30;53168;51.146;17.120;2024-03-02T16:28:17;13.23;70.14
66373;SHT30;53168;51.146;17.120;2024-03-02T16:30:48;13.19;70.22
66373;SHT30;53168;51.146;17.120;2024-03-02T16:33:34;13.16;70.30
66373;SHT30;53168;51.146;17.120;2024-03-02T16:36:06;13.12;70.38
66373;SHT30;53168;51.146;17.120;2024-03-02T16:38:41;13.08;70.40
66373;SHT30;53168;51.146;17.120;2024-03-02T16:41:13;13.06;70.42
66373;SHT30;53168;51.146;17.120;2024-03-02T16:43:45;13.03;70.46
66373;SHT30;53168;51.146;17.120;2024-03-02T16:46:17;13.01;70.50
66373;SHT30;53168;51.146;17.120;2024-03-02T16:48:47;12.98;70.58
66373;SHT30;53168;51.146;17.120;2024-03-02T16:51:18;12.95;70.65
66373;SHT30;53168;51.146;17.120;2024-03-02T16:53:52;12.91;70.73
66373;SHT30;53168;51.146;17.120;2024-03-02T16:56:23;12.86;70.84
66373;SHT30;53168;51.146;17.120;2024-03-02T16:58:55;12.82;70.90
66373;SHT30;53168;51.146;17.120;2024-03-02T17:01:27;12.78;70.96
66373;SHT30;53168;51.146;17.120;2024-03-02T17:03:58;12.75;71.02
66373;SHT30;53168;51.146;17.120;2024-03-02T17:06:30;12.73;71.06
66373;SHT30;53168;51.146;17.120;2024-03-02T17:09:01;12.69;71.14
66373;SHT30;53168;51.146;17.120;2024-03-02T17:11:33;12.66;71.17
66373;SHT30;53168;51.146;17.120;2024-03-02T17:14:04;12.62;71.27
66373;SHT30;53168;51.146;17.120;2024-03-02T17:16:35;12.59;71.39
66373;SHT30;53168;51.146;17.120;2024-03-02T17:19:07;12.56;71.38
66373;SHT30;53168;51.146;17.120;2024-03-02T17:21:39;12.51;71.51
66373;SHT30;53168;51.146;17.120;2024-03-02T17:24:10;12.48;71.63
66373;SHT30;53168;51.146;17.120;2024-03-02T17:26:41;12.43;71.75
66373;SHT30;53168;51.146;17.120;2024-03-02T17:29:12;12.40;71.78